createdAt,value
2019-03-22T01:01:34.789Z,0.00
2019-03-22T01:02:34.980Z,0.00
2019-03-22T01:04:34.757Z,0.00
2019-03-22T01:05:34.745Z,0.00
2019-03-22T01:06:34.737Z,0.00
2019-03-22T01:07:34.725Z,0.00
2019-03-22T01:08:34.819Z,0.00
2019-03-22T01:09:34.705Z,0.00
2019-03-22T01:10:34.694Z,0.00
2019-03-22T01:11:34.685Z,0.00
2019-03-22T01:12:34.675Z,0.00
2019-03-22T01:13:34.662Z,0.00
2019-03-22T01:14:34.705Z,0.00
2019-03-22T01:15:34.641Z,0.00
2019-03-22T01:16:34.632Z,0.00
2019-03-22T01:17:34.618Z,0.00
2019-03-22T01:18:34.607Z,0.00
2019-03-22T01:19:34.599Z,0.00
2019-03-22T01:20:34.739Z,0.00
2019-03-22T01:21:34.581Z,0.00
2019-03-22T01:22:34.566Z,5.62
2019-03-22T01:23:34.554Z,5.62
2019-03-22T01:24:34.546Z,5.62
2019-03-22T01:25:34.534Z,5.62
2019-03-22T01:26:34.577Z,11.25
2019-03-22T01:27:40.248Z,11.25
2019-03-22T01:28:59.331Z,11.25
2019-03-22T01:29:59.314Z,16.87
2019-03-22T01:30:59.305Z,16.87
2019-03-22T01:31:59.340Z,22.50
2019-03-22T01:32:59.280Z,22.50
2019-03-22T01:33:59.273Z,28.12
2019-03-22T01:34:59.253Z,28.12
2019-03-22T01:35:59.247Z,33.75
2019-03-22T01:36:59.252Z,39.37
2019-03-22T01:37:59.377Z,39.37
2019-03-22T01:38:59.212Z,50.62
2019-03-22T01:39:59.203Z,56.25
2019-03-22T01:40:59.193Z,73.12
2019-03-22T01:41:59.182Z,101.25
2019-03-22T01:42:59.172Z,129.37
2019-03-22T01:43:59.215Z,151.87
2019-03-22T01:44:59.144Z,135.00
2019-03-22T01:45:59.137Z,84.37
2019-03-22T01:46:59.121Z,67.50
2019-03-22T01:47:59.116Z,67.50
2019-03-22T01:48:59.102Z,67.50
2019-03-22T01:49:59.142Z,84.37
2019-03-22T01:50:59.088Z,101.25
2019-03-22T01:51:59.072Z,90.00
2019-03-22T01:52:59.061Z,95.62
2019-03-22T01:53:59.049Z,123.75
2019-03-22T01:54:59.038Z,123.75
2019-03-22T01:55:59.232Z,90.00
2019-03-22T01:56:59.018Z,95.62
2019-03-22T01:57:59.004Z,112.50
2019-03-22T01:58:58.992Z,118.12
2019-03-22T01:59:58.986Z,95.62
2019-03-22T02:00:58.968Z,90.00
2019-03-22T02:01:59.066Z,90.00
2019-03-22T02:02:58.947Z,90.00
2019-03-22T02:03:58.943Z,84.37
2019-03-22T02:04:58.928Z,84.37
2019-03-22T02:05:58.916Z,84.37
2019-03-22T02:06:58.941Z,84.37
2019-03-22T02:07:58.946Z,90.00
2019-03-22T02:08:58.882Z,106.87
2019-03-22T02:09:58.874Z,135.00
2019-03-22T02:10:58.863Z,123.75
2019-03-22T02:11:58.849Z,112.50
2019-03-22T02:12:58.837Z,90.00
2019-03-22T02:13:58.979Z,73.12
2019-03-22T02:14:58.818Z,67.50
2019-03-22T02:15:58.807Z,67.50
2019-03-22T02:16:58.794Z,67.50
2019-03-22T02:17:58.786Z,73.12
2019-03-22T02:18:58.775Z,73.12
2019-03-22T02:19:58.866Z,73.12
2019-03-22T02:20:58.760Z,73.12
2019-03-22T02:21:58.738Z,73.12
2019-03-22T02:22:58.731Z,73.12
2019-03-22T02:23:58.718Z,73.12
2019-03-22T02:24:58.708Z,73.12
2019-03-22T02:25:58.796Z,73.12
2019-03-22T02:26:58.687Z,78.75
2019-03-22T02:28:04.211Z,78.75
2019-03-22T02:28:59.765Z,84.37
2019-03-22T02:29:58.656Z,84.37
2019-03-22T02:30:58.644Z,90.00
2019-03-22T02:31:58.785Z,90.00
2019-03-22T02:32:58.634Z,90.00
2019-03-22T02:33:58.618Z,95.62
2019-03-22T02:34:58.601Z,95.62
2019-03-22T02:35:58.590Z,95.62
2019-03-22T02:36:58.576Z,101.25
2019-03-22T02:37:58.612Z,112.50
2019-03-22T02:38:58.560Z,118.12
2019-03-22T02:39:58.543Z,123.75
2019-03-22T02:40:58.539Z,157.50
2019-03-22T02:41:58.525Z,151.87
2019-03-22T02:42:58.512Z,157.50
2019-03-22T02:43:58.553Z,168.75
2019-03-22T02:44:58.490Z,174.37
2019-03-22T02:45:58.482Z,174.37
2019-03-22T02:46:58.470Z,180.00
2019-03-22T02:47:58.461Z,185.62
2019-03-22T02:48:58.445Z,185.62
2019-03-22T02:49:58.636Z,191.25
2019-03-22T02:50:58.444Z,191.25
2019-03-22T02:51:58.416Z,191.25
2019-03-22T02:52:58.409Z,191.25
2019-03-22T02:53:58.398Z,191.25
2019-03-22T02:54:58.385Z,208.12
2019-03-22T02:55:58.599Z,219.37
2019-03-22T02:56:58.366Z,208.12
2019-03-22T02:57:58.350Z,258.75
2019-03-22T02:58:59.424Z,225.00
2019-03-22T02:59:58.382Z,202.50
2019-03-22T03:00:58.319Z,196.87
2019-03-22T03:01:58.357Z,191.25
2019-03-22T03:02:58.296Z,191.25
2019-03-22T03:03:58.280Z,191.25
2019-03-22T03:04:58.275Z,196.87
2019-03-22T03:05:58.261Z,202.50
2019-03-22T03:06:58.254Z,213.75
2019-03-22T03:07:58.392Z,213.75
2019-03-22T03:08:58.228Z,213.75
2019-03-22T03:09:58.219Z,213.75
2019-03-22T03:10:58.206Z,213.75
2019-03-22T03:11:58.199Z,219.37
2019-03-22T03:12:58.182Z,225.00
2019-03-22T03:13:58.220Z,225.00
2019-03-22T03:14:58.163Z,219.37
2019-03-22T03:15:58.152Z,219.37
2019-03-22T03:16:58.196Z,219.37
2019-03-22T03:17:58.132Z,225.00
2019-03-22T03:18:58.123Z,225.00
2019-03-22T03:19:58.157Z,236.25
2019-03-22T03:20:58.101Z,241.87
2019-03-22T03:21:58.087Z,241.87
2019-03-22T03:22:58.074Z,241.87
2019-03-22T03:23:58.065Z,241.87
2019-03-22T03:24:58.052Z,236.25
2019-03-22T03:25:58.193Z,230.62
2019-03-22T03:26:58.030Z,225.00
2019-03-22T03:27:58.015Z,219.37
2019-03-22T03:28:58.021Z,213.75
2019-03-22T03:29:57.999Z,208.12
2019-03-22T03:30:57.989Z,208.12
2019-03-22T03:31:58.078Z,202.50
2019-03-22T03:32:57.970Z,196.87
2019-03-22T03:33:57.965Z,191.25
2019-03-22T03:34:57.955Z,185.62
2019-03-22T03:35:57.934Z,180.00
2019-03-22T03:36:57.921Z,174.37
2019-03-22T03:37:58.014Z,168.75
2019-03-22T03:38:57.899Z,168.75
2019-03-22T03:39:57.888Z,163.12
2019-03-22T03:40:57.881Z,163.12
2019-03-22T03:41:57.868Z,163.12
2019-03-22T03:42:57.856Z,163.12
2019-03-22T03:43:57.991Z,163.12
2019-03-22T03:44:57.831Z,163.12
2019-03-22T03:45:57.823Z,163.12
2019-03-22T03:46:57.813Z,163.12
2019-03-22T03:47:57.801Z,168.75
2019-03-22T03:48:57.789Z,168.75
2019-03-22T03:49:57.878Z,168.75
2019-03-22T03:50:57.771Z,168.75
2019-03-22T03:51:57.765Z,168.75
2019-03-22T03:52:57.748Z,168.75
2019-03-22T03:53:57.738Z,168.75
2019-03-22T03:54:57.729Z,168.75
2019-03-22T03:55:57.822Z,168.75
2019-03-22T03:56:57.705Z,168.75
2019-03-22T03:57:57.692Z,163.12
2019-03-22T03:58:57.681Z,163.12
2019-03-22T03:59:57.670Z,163.12
2019-03-22T04:00:57.669Z,163.12
2019-03-22T04:01:57.801Z,163.12
2019-03-22T04:02:57.642Z,163.12
2019-03-22T04:03:57.646Z,163.12
2019-03-22T04:04:57.618Z,163.12
2019-03-22T04:05:57.608Z,163.12
2019-03-22T04:06:57.594Z,163.12
2019-03-22T04:07:57.638Z,163.12
2019-03-22T04:08:57.571Z,163.12
2019-03-22T04:09:57.569Z,157.50
2019-03-22T04:10:57.554Z,157.50
2019-03-22T04:11:57.542Z,157.50
2019-03-22T04:12:57.566Z,151.87
2019-03-22T04:13:57.621Z,151.87
2019-03-22T04:14:57.518Z,146.25
2019-03-22T04:15:57.526Z,140.62
2019-03-22T04:16:57.491Z,135.00
2019-03-22T04:17:57.473Z,129.37
2019-03-22T04:18:57.466Z,129.37
2019-03-22T04:19:57.608Z,129.37
2019-03-22T04:20:57.446Z,135.00
2019-03-22T04:21:57.440Z,146.25
2019-03-22T04:22:57.427Z,151.87
2019-03-22T04:23:57.416Z,163.12
2019-03-22T04:24:57.400Z,168.75
2019-03-22T04:25:57.443Z,168.75
2019-03-22T04:26:57.387Z,163.12
2019-03-22T04:27:57.370Z,151.87
2019-03-22T04:29:07.523Z,146.25
2019-03-22T04:30:22.160Z,140.62
2019-03-22T04:31:22.256Z,135.00
2019-03-22T04:32:22.142Z,135.00
2019-03-22T04:33:22.133Z,135.00
2019-03-22T04:34:22.133Z,135.00
2019-03-22T04:35:22.114Z,140.62
2019-03-22T04:36:22.100Z,146.25
2019-03-22T04:37:22.345Z,157.50
2019-03-22T04:38:22.079Z,168.75
2019-03-22T04:39:22.069Z,174.37
2019-03-22T04:40:22.056Z,180.00
2019-03-22T04:41:22.046Z,180.00
2019-03-22T04:42:22.038Z,174.37
2019-03-22T04:43:22.072Z,163.12
2019-03-22T04:44:22.012Z,157.50
2019-03-22T04:45:21.997Z,146.25
2019-03-22T04:46:21.990Z,140.62
2019-03-22T04:47:21.980Z,135.00
2019-03-22T04:48:21.971Z,129.37
2019-03-22T04:49:22.057Z,123.75
2019-03-22T04:50:21.945Z,118.12
2019-03-22T04:51:21.933Z,118.12
2019-03-22T04:52:21.927Z,118.12
2019-03-22T04:53:22.160Z,118.12
2019-03-22T04:54:21.905Z,118.12
2019-03-22T04:55:22.293Z,123.75
2019-03-22T04:56:21.880Z,123.75
2019-03-22T04:57:21.871Z,129.37
2019-03-22T04:58:21.862Z,135.00
2019-03-22T04:59:21.846Z,140.62
2019-03-22T05:00:21.839Z,146.25
2019-03-22T05:01:21.881Z,151.87
2019-03-22T05:02:21.813Z,157.50
2019-03-22T05:03:21.806Z,163.12
2019-03-22T05:04:21.797Z,163.12
2019-03-22T05:05:21.792Z,168.75
2019-03-22T05:06:21.770Z,174.37
2019-03-22T05:07:21.809Z,180.00
2019-03-22T05:08:21.751Z,185.62
2019-03-22T05:09:21.736Z,196.87
2019-03-22T05:10:21.730Z,208.12
2019-03-22T05:11:21.720Z,219.37
2019-03-22T05:12:21.710Z,219.37
2019-03-22T05:13:21.842Z,225.00
2019-03-22T05:14:21.686Z,219.37
2019-03-22T05:15:21.675Z,213.75
2019-03-22T05:16:21.665Z,213.75
2019-03-22T05:17:21.657Z,208.12
2019-03-22T05:18:21.645Z,208.12
2019-03-22T05:19:21.683Z,202.50
2019-03-22T05:20:21.618Z,202.50
2019-03-22T05:21:21.610Z,202.50
2019-03-22T05:22:21.597Z,202.50
2019-03-22T05:23:21.587Z,202.50
2019-03-22T05:24:21.585Z,202.50
2019-03-22T05:25:21.669Z,208.12
2019-03-22T05:26:21.552Z,213.75
2019-03-22T05:27:21.541Z,225.00
2019-03-22T05:28:21.534Z,230.62
2019-03-22T05:29:30.179Z,236.25
2019-03-22T05:30:23.010Z,247.50
2019-03-22T05:31:21.501Z,253.12
2019-03-22T05:32:21.488Z,253.12
2019-03-22T05:33:21.479Z,264.37
2019-03-22T05:34:21.470Z,270.00
2019-03-22T05:35:21.460Z,281.25
2019-03-22T05:36:21.498Z,292.50
2019-03-22T05:37:21.438Z,303.75
2019-03-22T05:38:21.426Z,309.37
2019-03-22T05:39:21.418Z,320.62
2019-03-22T05:40:21.402Z,320.62
2019-03-22T05:41:21.397Z,326.25
2019-03-22T05:42:21.486Z,331.87
2019-03-22T05:43:21.369Z,331.87
2019-03-22T05:44:21.364Z,331.87
2019-03-22T05:45:21.353Z,337.50
2019-03-22T05:46:21.340Z,337.50
2019-03-22T05:47:21.333Z,337.50
2019-03-22T05:48:21.474Z,337.50
2019-03-22T05:49:21.314Z,337.50
2019-03-22T05:50:21.301Z,337.50
2019-03-22T05:51:21.290Z,337.50
2019-03-22T05:52:21.275Z,343.12
2019-03-22T05:53:21.267Z,343.12
2019-03-22T05:54:21.358Z,348.75
2019-03-22T05:55:21.265Z,354.37
2019-03-22T05:56:21.237Z,360.00
2019-03-22T05:57:21.232Z,360.00
2019-03-22T05:58:21.218Z,365.62
2019-03-22T05:59:21.205Z,365.62
2019-03-22T06:00:21.245Z,371.25
2019-03-22T06:01:21.186Z,376.87
2019-03-22T06:02:21.172Z,376.87
2019-03-22T06:03:21.164Z,376.87
2019-03-22T06:04:21.152Z,371.25
2019-03-22T06:05:21.141Z,371.25
2019-03-22T06:06:21.279Z,365.62
2019-03-22T06:07:21.120Z,360.00
2019-03-22T06:08:21.110Z,348.75
2019-03-22T06:09:21.095Z,337.50
2019-03-22T06:10:21.086Z,331.87
2019-03-22T06:11:21.078Z,326.25
2019-03-22T06:12:21.170Z,320.62
2019-03-22T06:13:21.054Z,320.62
2019-03-22T06:14:21.044Z,320.62
2019-03-22T06:15:21.031Z,320.62
2019-03-22T06:16:21.022Z,320.62
2019-03-22T06:17:21.016Z,320.62
2019-03-22T06:18:21.046Z,320.62
2019-03-22T06:19:20.986Z,320.62
2019-03-22T06:20:20.979Z,320.62
2019-03-22T06:21:20.967Z,315.00
2019-03-22T06:22:20.957Z,315.00
2019-03-22T06:23:20.949Z,315.00
2019-03-22T06:24:22.345Z,309.37
2019-03-22T06:25:20.946Z,309.37
2019-03-22T06:26:20.916Z,315.00
2019-03-22T06:27:20.902Z,315.00
2019-03-22T06:28:20.887Z,320.62
2019-03-22T06:29:20.897Z,331.87
2019-03-22T06:30:20.970Z,337.50
2019-03-22T06:31:20.880Z,343.12
2019-03-22T06:32:20.845Z,348.75
2019-03-22T06:33:20.834Z,348.75
2019-03-22T06:34:20.822Z,348.75
2019-03-22T06:35:20.809Z,348.75
2019-03-22T06:36:20.850Z,354.37
2019-03-22T06:37:20.791Z,360.00
2019-03-22T06:38:20.778Z,360.00
2019-03-22T06:39:20.769Z,365.62
2019-03-22T06:40:20.755Z,371.25
2019-03-22T06:41:20.748Z,371.25
2019-03-22T06:42:20.986Z,365.62
2019-03-22T06:43:20.730Z,365.62
2019-03-22T06:44:20.712Z,365.62
2019-03-22T06:45:20.702Z,354.37
2019-03-22T06:46:20.695Z,343.12
2019-03-22T06:47:20.689Z,331.87
2019-03-22T06:48:20.716Z,326.25
2019-03-22T06:49:20.661Z,315.00
2019-03-22T06:50:20.645Z,303.75
2019-03-22T06:51:20.632Z,286.87
2019-03-22T06:52:20.627Z,275.62
2019-03-22T06:53:20.610Z,264.37
2019-03-22T06:54:31.086Z,258.75
2019-03-22T06:55:45.407Z,258.75
2019-03-22T06:56:45.394Z,258.75
2019-03-22T06:57:45.387Z,258.75
2019-03-22T06:58:45.375Z,258.75
2019-03-22T06:59:45.614Z,258.75
2019-03-22T07:00:45.353Z,253.12
2019-03-22T07:01:45.344Z,247.50
2019-03-22T07:02:45.334Z,241.87
2019-03-22T07:03:45.322Z,230.62
2019-03-22T07:04:45.306Z,225.00
2019-03-22T07:05:45.399Z,219.37
2019-03-22T07:06:45.286Z,213.75
2019-03-22T07:07:45.279Z,208.12
2019-03-22T07:08:45.265Z,208.12
2019-03-22T07:09:45.260Z,208.12
2019-03-22T07:10:45.247Z,213.75
2019-03-22T07:11:45.285Z,219.37
2019-03-22T07:12:45.222Z,219.37
2019-03-22T07:13:45.207Z,219.37
2019-03-22T07:14:45.201Z,213.75
2019-03-22T07:15:45.190Z,202.50
2019-03-22T07:16:45.177Z,202.50
2019-03-22T07:17:45.417Z,196.87
2019-03-22T07:18:45.156Z,196.87
2019-03-22T07:19:45.142Z,196.87
2019-03-22T07:20:45.135Z,196.87
2019-03-22T07:21:45.121Z,196.87
2019-03-22T07:22:45.166Z,202.50
2019-03-22T07:23:45.149Z,202.50
2019-03-22T07:24:45.092Z,202.50
2019-03-22T07:25:45.080Z,202.50
2019-03-22T07:26:45.067Z,208.12
2019-03-22T07:27:45.058Z,208.12
2019-03-22T07:28:45.047Z,213.75
2019-03-22T07:29:45.084Z,219.37
2019-03-22T07:30:45.021Z,230.62
2019-03-22T07:31:45.013Z,230.62
2019-03-22T07:32:45.005Z,230.62
2019-03-22T07:33:44.995Z,225.00
2019-03-22T07:34:44.981Z,219.37
2019-03-22T07:35:45.176Z,213.75
2019-03-22T07:36:46.996Z,208.12
2019-03-22T07:37:44.947Z,202.50
2019-03-22T07:38:44.944Z,202.50
2019-03-22T07:39:44.930Z,202.50
2019-03-22T07:40:44.921Z,208.12
2019-03-22T07:41:44.964Z,208.12
2019-03-22T07:42:44.903Z,208.12
2019-03-22T07:43:44.886Z,202.50
2019-03-22T07:44:44.882Z,196.87
2019-03-22T07:45:44.874Z,185.62
2019-03-22T07:46:44.861Z,180.00
2019-03-22T07:47:44.945Z,174.37
2019-03-22T07:48:44.836Z,168.75
2019-03-22T07:49:44.826Z,163.12
2019-03-22T07:50:44.814Z,163.12
2019-03-22T07:51:44.806Z,163.12
2019-03-22T07:52:44.796Z,157.50
2019-03-22T07:53:45.233Z,157.50
2019-03-22T07:54:44.773Z,157.50
2019-03-22T07:55:44.765Z,157.50
2019-03-22T07:56:44.753Z,157.50
2019-03-22T07:57:44.743Z,157.50
2019-03-22T07:58:44.732Z,151.87
2019-03-22T07:59:44.773Z,151.87
2019-03-22T08:00:44.707Z,151.87
2019-03-22T08:01:44.699Z,146.25
2019-03-22T08:02:44.689Z,146.25
2019-03-22T08:03:44.676Z,140.62
2019-03-22T08:04:44.665Z,135.00
2019-03-22T08:05:50.788Z,129.37
2019-03-22T08:07:09.465Z,129.37
2019-03-22T08:08:09.448Z,129.37
2019-03-22T08:09:09.437Z,129.37
2019-03-22T08:10:09.430Z,129.37
2019-03-22T08:11:09.576Z,123.75
2019-03-22T08:12:09.403Z,123.75
2019-03-22T08:13:09.396Z,118.12
2019-03-22T08:14:09.384Z,118.12
2019-03-22T08:15:09.396Z,112.50
2019-03-22T08:16:09.383Z,112.50
2019-03-22T08:17:09.455Z,106.87
2019-03-22T08:18:09.377Z,106.87
2019-03-22T08:19:09.337Z,106.87
2019-03-22T08:20:09.324Z,112.50
2019-03-22T08:21:09.314Z,112.50
2019-03-22T08:22:09.330Z,112.50
2019-03-22T08:23:09.382Z,118.12
2019-03-22T08:24:09.277Z,123.75
2019-03-22T08:25:09.306Z,129.37
2019-03-22T08:26:09.269Z,135.00
2019-03-22T08:27:09.269Z,146.25
2019-03-22T08:28:09.238Z,151.87
2019-03-22T08:29:09.382Z,163.12
2019-03-22T08:30:09.220Z,174.37
2019-03-22T08:31:09.206Z,180.00
2019-03-22T08:32:09.212Z,185.62
2019-03-22T08:33:09.198Z,191.25
2019-03-22T08:34:09.179Z,191.25
2019-03-22T08:35:09.265Z,191.25
2019-03-22T08:36:09.158Z,196.87
2019-03-22T08:37:09.177Z,202.50
2019-03-22T08:38:09.130Z,208.12
2019-03-22T08:39:09.119Z,213.75
2019-03-22T08:40:09.144Z,219.37
2019-03-22T08:41:09.212Z,225.00
2019-03-22T08:42:09.093Z,236.25
2019-03-22T08:43:09.073Z,247.50
2019-03-22T08:44:09.071Z,253.12
2019-03-22T08:45:11.277Z,264.37
2019-03-22T08:46:09.043Z,275.62
2019-03-22T08:47:09.181Z,286.87
2019-03-22T08:48:09.023Z,298.12
2019-03-22T08:49:09.690Z,309.37
2019-03-22T08:50:08.998Z,315.00
2019-03-22T08:51:09.021Z,320.62
2019-03-22T08:52:08.999Z,320.62
2019-03-22T08:53:09.016Z,320.62
2019-03-22T08:54:08.996Z,326.25
2019-03-22T08:55:08.946Z,331.87
2019-03-22T08:56:08.939Z,337.50
2019-03-22T08:57:08.927Z,343.12
2019-03-22T08:58:08.916Z,348.75
2019-03-22T08:59:09.115Z,354.37
2019-03-22T09:00:08.957Z,354.37
2019-03-22T09:01:08.901Z,360.00
2019-03-22T09:02:08.875Z,365.62
2019-03-22T09:03:08.860Z,371.25
2019-03-22T09:04:08.849Z,371.25
2019-03-22T09:05:08.990Z,376.87
2019-03-22T09:06:08.829Z,376.87
2019-03-22T09:07:08.831Z,376.87
2019-03-22T09:08:08.805Z,376.87
2019-03-22T09:09:08.791Z,376.87
2019-03-22T09:10:08.791Z,382.50
2019-03-22T09:11:08.857Z,388.12
2019-03-22T09:12:08.788Z,393.75
2019-03-22T09:13:08.749Z,399.37
2019-03-22T09:14:08.760Z,405.00
2019-03-22T09:15:08.749Z,410.62
2019-03-22T09:16:08.723Z,416.25
2019-03-22T09:17:08.781Z,416.25
2019-03-22T09:18:08.701Z,421.87
2019-03-22T09:19:08.698Z,416.25
2019-03-22T09:20:08.733Z,410.62
2019-03-22T09:21:08.665Z,410.62
2019-03-22T09:22:08.699Z,410.62
2019-03-22T09:23:08.798Z,405.00
2019-03-22T09:24:08.633Z,393.75
2019-03-22T09:25:08.629Z,388.12
2019-03-22T09:26:08.641Z,388.12
2019-03-22T09:27:08.606Z,388.12
2019-03-22T09:28:10.384Z,388.12
2019-03-22T09:29:08.641Z,382.50
2019-03-22T09:30:08.586Z,371.25
2019-03-22T09:31:10.611Z,360.00
2019-03-22T09:32:08.600Z,348.75
2019-03-22T09:33:08.554Z,343.12
2019-03-22T09:34:08.528Z,331.87
2019-03-22T09:35:08.568Z,320.62
2019-03-22T09:36:08.535Z,309.37
2019-03-22T09:37:09.048Z,298.12
2019-03-22T09:38:13.127Z,286.87
2019-03-22T09:39:08.530Z,281.25
2019-03-22T09:40:08.812Z,270.00
2019-03-22T09:41:08.615Z,264.37
2019-03-22T09:42:08.523Z,264.37
2019-03-22T09:43:08.428Z,258.75
2019-03-22T09:44:08.428Z,253.12
2019-03-22T09:45:08.407Z,253.12
2019-03-22T09:46:08.394Z,247.50
2019-03-22T09:47:08.543Z,247.50
2019-03-22T09:48:08.377Z,247.50
2019-03-22T09:49:08.364Z,241.87
2019-03-22T09:50:08.354Z,241.87
2019-03-22T09:51:08.344Z,241.87
2019-03-22T09:52:42.907Z,236.25
2019-03-22T09:53:08.333Z,230.62
2019-03-22T09:54:08.309Z,219.37
2019-03-22T09:55:13.664Z,219.37
2019-03-22T09:56:08.292Z,213.75
2019-03-22T09:57:08.280Z,219.37
2019-03-22T09:58:08.456Z,208.12
2019-03-22T09:59:08.260Z,208.12
2019-03-22T10:00:08.299Z,213.75
2019-03-22T10:01:08.274Z,213.75
2019-03-22T10:02:08.224Z,219.37
2019-03-22T10:03:08.213Z,219.37
2019-03-22T10:04:08.272Z,225.00
2019-03-22T10:05:08.213Z,236.25
2019-03-22T10:06:08.177Z,253.12
2019-03-22T10:07:08.177Z,264.37
2019-03-22T10:08:08.182Z,275.62
2019-03-22T10:09:08.147Z,275.62
2019-03-22T10:10:08.182Z,275.62
2019-03-22T10:11:08.155Z,270.00
2019-03-22T10:12:08.128Z,264.37
2019-03-22T10:13:08.137Z,264.37
2019-03-22T10:14:08.093Z,258.75
2019-03-22T10:15:08.088Z,258.75
2019-03-22T10:16:08.286Z,258.75
2019-03-22T10:17:08.092Z,253.12
2019-03-22T10:18:08.055Z,253.12
2019-03-22T10:19:08.095Z,253.12
2019-03-22T10:20:08.031Z,247.50
2019-03-22T10:21:08.019Z,253.12
2019-03-22T10:22:08.067Z,253.12
2019-03-22T10:23:07.997Z,258.75
2019-03-22T10:24:07.986Z,258.75
2019-03-22T10:25:08.051Z,253.12
2019-03-22T10:26:07.964Z,247.50
2019-03-22T10:27:07.958Z,241.87
2019-03-22T10:28:08.056Z,241.87
2019-03-22T10:29:07.960Z,241.87
2019-03-22T10:30:07.954Z,241.87
2019-03-22T10:31:07.914Z,247.50
2019-03-22T10:32:07.898Z,247.50
2019-03-22T10:33:07.970Z,253.12
2019-03-22T10:34:08.085Z,253.12
2019-03-22T10:35:07.931Z,258.75
2019-03-22T10:36:07.923Z,253.12
2019-03-22T10:37:07.845Z,253.12
2019-03-22T10:38:15.908Z,253.12
2019-03-22T10:39:32.723Z,247.50
2019-03-22T10:40:32.713Z,241.87
2019-03-22T10:41:32.665Z,241.87
2019-03-22T10:42:32.681Z,241.87
2019-03-22T10:43:32.650Z,247.50
2019-03-22T10:44:32.683Z,253.12
2019-03-22T10:45:32.694Z,258.75
2019-03-22T10:46:32.614Z,258.75
2019-03-22T10:47:32.635Z,264.37
2019-03-22T10:48:32.685Z,258.75
2019-03-22T10:49:32.584Z,258.75
2019-03-22T10:50:32.774Z,253.12
2019-03-22T10:51:32.565Z,247.50
2019-03-22T10:52:32.550Z,241.87
2019-03-22T10:53:32.602Z,236.25
2019-03-22T10:54:32.534Z,236.25
2019-03-22T10:55:35.378Z,230.62
2019-03-22T10:56:32.559Z,225.00
2019-03-22T10:57:32.495Z,225.00
2019-03-22T10:58:32.484Z,225.00
2019-03-22T10:59:32.475Z,225.00
2019-03-22T11:00:32.462Z,225.00
2019-03-22T11:01:32.455Z,225.00
2019-03-22T11:02:32.486Z,225.00
2019-03-22T11:03:32.484Z,225.00
2019-03-22T11:04:32.420Z,219.37
2019-03-22T11:05:32.408Z,213.75
2019-03-22T11:06:32.399Z,208.12
2019-03-22T11:07:32.390Z,202.50
2019-03-22T11:08:32.528Z,196.87
2019-03-22T11:09:32.365Z,191.25
2019-03-22T11:10:32.354Z,191.25
2019-03-22T11:11:32.344Z,185.62
2019-03-22T11:12:32.334Z,185.62
2019-03-22T11:13:32.322Z,185.62
2019-03-22T11:14:32.362Z,180.00
2019-03-22T11:15:32.295Z,180.00
2019-03-22T11:16:32.289Z,180.00
2019-03-22T11:17:32.279Z,180.00
2019-03-22T11:18:37.288Z,180.00
2019-03-22T11:19:32.255Z,174.37
2019-03-22T11:20:32.346Z,174.37
2019-03-22T11:21:32.232Z,168.75
2019-03-22T11:22:32.224Z,168.75
2019-03-22T11:23:32.215Z,163.12
2019-03-22T11:24:32.204Z,163.12
2019-03-22T11:25:32.193Z,163.12
2019-03-22T11:26:32.430Z,163.12
2019-03-22T11:27:32.170Z,163.12
2019-03-22T11:28:32.155Z,157.50
2019-03-22T11:29:32.150Z,157.50
2019-03-22T11:30:32.135Z,151.87
2019-03-22T11:31:39.511Z,151.87
2019-03-22T11:32:56.980Z,146.25
2019-03-22T11:33:56.968Z,146.25
2019-03-22T11:34:56.958Z,146.25
2019-03-22T11:35:56.949Z,140.62
2019-03-22T11:36:56.934Z,140.62
2019-03-22T11:37:56.980Z,140.62
2019-03-22T11:38:56.912Z,140.62
2019-03-22T11:39:56.905Z,135.00
2019-03-22T11:40:56.891Z,135.00
2019-03-22T11:41:56.883Z,135.00
2019-03-22T11:42:56.871Z,129.37
2019-03-22T11:43:57.071Z,129.37
2019-03-22T11:44:56.851Z,123.75
2019-03-22T11:45:56.837Z,123.75
2019-03-22T11:46:56.825Z,118.12
2019-03-22T11:47:56.820Z,118.12
2019-03-22T11:48:56.802Z,118.12
2019-03-22T11:49:56.899Z,118.12
2019-03-22T11:50:56.786Z,118.12
2019-03-22T11:51:56.777Z,123.75
2019-03-22T11:52:56.767Z,129.37
2019-03-22T11:53:56.756Z,135.00
2019-03-22T11:54:56.742Z,140.62
2019-03-22T11:55:56.776Z,140.62
2019-03-22T11:56:56.721Z,146.25
2019-03-22T11:57:56.714Z,146.25
2019-03-22T11:58:56.695Z,146.25
2019-03-22T11:59:56.690Z,151.87
2019-03-22T12:00:56.674Z,151.87
2019-03-22T12:01:56.819Z,151.87
2019-03-22T12:02:56.652Z,151.87
2019-03-22T12:03:56.645Z,151.87
2019-03-22T12:04:56.632Z,146.25
2019-03-22T12:05:56.624Z,146.25
2019-03-22T12:06:56.613Z,146.25
2019-03-22T12:07:56.653Z,146.25
2019-03-22T12:08:56.590Z,140.62
2019-03-22T12:09:56.578Z,140.62
2019-03-22T12:10:56.563Z,140.62
2019-03-22T12:11:56.556Z,135.00
2019-03-22T12:12:56.548Z,135.00
2019-03-22T12:13:56.586Z,129.37
2019-03-22T12:14:56.526Z,129.37
2019-03-22T12:15:56.514Z,123.75
2019-03-22T12:16:56.786Z,118.12
2019-03-22T12:17:56.491Z,118.12
2019-03-22T12:18:56.478Z,112.50
2019-03-22T12:19:56.621Z,112.50
2019-03-22T12:20:56.655Z,106.87
2019-03-22T12:21:56.446Z,106.87
2019-03-22T12:22:56.437Z,106.87
2019-03-22T12:23:56.425Z,106.87
2019-03-22T12:24:56.417Z,106.87
2019-03-22T12:25:56.449Z,101.25
2019-03-22T12:26:56.393Z,101.25
2019-03-22T12:27:56.381Z,101.25
2019-03-22T12:28:56.372Z,95.62
2019-03-22T12:29:56.358Z,95.62
2019-03-22T12:30:56.346Z,90.00
2019-03-22T12:31:56.439Z,90.00
2019-03-22T12:32:56.327Z,84.37
2019-03-22T12:33:56.319Z,84.37
2019-03-22T12:34:56.306Z,84.37
2019-03-22T12:35:56.299Z,90.00
2019-03-22T12:36:56.277Z,90.00
2019-03-22T12:37:57.781Z,90.00
2019-03-22T12:38:56.265Z,90.00
2019-03-22T12:39:56.253Z,90.00
2019-03-22T12:40:56.237Z,90.00
2019-03-22T12:41:56.230Z,90.00
2019-03-22T12:42:56.748Z,84.37
2019-03-22T12:43:56.256Z,84.37
2019-03-22T12:44:56.193Z,84.37
2019-03-22T12:45:56.185Z,84.37
2019-03-22T12:46:56.170Z,78.75
2019-03-22T12:47:56.158Z,78.75
2019-03-22T12:48:56.149Z,78.75
2019-03-22T12:49:56.243Z,73.12
2019-03-22T12:50:56.129Z,73.12
2019-03-22T12:51:56.112Z,73.12
2019-03-22T12:52:56.121Z,67.50
2019-03-22T12:53:56.093Z,67.50
2019-03-22T12:54:56.080Z,61.87
2019-03-22T12:55:56.225Z,61.87
2019-03-22T12:56:56.061Z,56.25
2019-03-22T12:57:56.053Z,56.25
2019-03-22T12:58:56.037Z,50.62
2019-03-22T12:59:56.027Z,50.62
2019-03-22T13:00:56.020Z,45.00
2019-03-22T13:01:56.110Z,45.00
2019-03-22T13:02:55.999Z,39.37
2019-03-22T13:03:55.988Z,39.37
2019-03-22T13:04:55.971Z,39.37
2019-03-22T13:05:55.962Z,39.37
2019-03-22T13:06:55.955Z,33.75
2019-03-22T13:07:55.994Z,33.75
2019-03-22T13:08:55.931Z,33.75
2019-03-22T13:09:55.915Z,33.75
2019-03-22T13:10:55.905Z,33.75
2019-03-22T13:11:55.896Z,33.75
2019-03-22T13:12:55.884Z,28.12
2019-03-22T13:13:56.074Z,28.12
2019-03-22T13:14:56.718Z,28.12
2019-03-22T13:15:55.864Z,28.12
2019-03-22T13:16:55.838Z,22.50
2019-03-22T13:17:55.832Z,22.50
2019-03-22T13:18:55.823Z,22.50
2019-03-22T13:19:55.860Z,22.50
2019-03-22T13:20:55.799Z,22.50
2019-03-22T13:21:55.790Z,22.50
2019-03-22T13:22:55.778Z,16.87
2019-03-22T13:23:55.763Z,16.87
2019-03-22T13:24:55.749Z,16.87
2019-03-22T13:25:55.849Z,16.87
2019-03-22T13:26:55.728Z,11.25
2019-03-22T13:27:55.719Z,11.25
2019-03-22T13:28:55.713Z,11.25
2019-03-22T13:29:55.697Z,11.25
2019-03-22T13:30:55.691Z,5.62
2019-03-22T13:31:55.832Z,5.62
2019-03-22T13:32:55.667Z,5.62
2019-03-22T13:33:55.657Z,5.62
2019-03-22T13:34:55.643Z,5.62
2019-03-22T13:35:55.635Z,5.62
2019-03-22T13:36:55.622Z,0.00
2019-03-22T13:37:55.665Z,0.00
2019-03-22T13:38:55.603Z,0.00